createdAt,value
2018-04-23T00:02:03.590Z,15.11
2018-04-23T00:04:32.135Z,15.07
2018-04-23T00:07:00.686Z,15.07
2018-04-23T00:09:29.337Z,15.08
2018-04-23T00:11:57.751Z,15.07
2018-04-23T00:14:26.163Z,15.10
2018-04-23T00:16:54.625Z,15.05
2018-04-23T00:19:22.995Z,15.04
2018-04-23T00:21:51.503Z,15.05
2018-04-23T00:24:20.493Z,14.97
2018-04-23T00:26:48.872Z,15.00
2018-04-23T00:29:17.269Z,14.94
2018-04-23T00:31:45.799Z,14.97
2018-04-23T00:34:14.165Z,15.02
2018-04-23T00:36:42.570Z,15.05
2018-04-23T00:39:11.752Z,14.98
2018-04-23T00:41:40.123Z,14.95
2018-04-23T00:44:08.479Z,14.93
2018-04-23T00:46:36.956Z,14.88
2018-04-23T00:49:05.335Z,14.85
2018-04-23T00:51:33.746Z,14.84
2018-04-23T00:54:02.960Z,14.83
2018-04-23T00:56:31.337Z,14.85
2018-04-23T00:58:59.713Z,14.84
2018-04-23T01:01:28.150Z,14.82
2018-04-23T01:03:56.519Z,14.80
2018-04-23T01:06:25.631Z,14.83
2018-04-23T01:08:54.200Z,14.86
2018-04-23T01:11:22.646Z,14.81
2018-04-23T01:13:51.007Z,14.80
2018-04-23T01:16:19.482Z,14.81
2018-04-23T01:18:47.842Z,14.79
2018-04-23T01:21:16.255Z,14.75
2018-04-23T01:23:45.176Z,14.73
2018-04-23T01:26:13.625Z,14.66
2018-04-23T01:28:42.056Z,14.60
2018-04-23T01:31:10.850Z,14.56
2018-04-23T01:33:40.470Z,14.53
2018-04-23T01:36:08.879Z,14.52
2018-04-23T01:38:37.308Z,14.52
2018-04-23T01:41:06.625Z,14.55
2018-04-23T01:43:35.012Z,14.55
2018-04-23T01:46:05.441Z,14.53
2018-04-23T01:48:33.800Z,14.55
2018-04-23T01:51:02.194Z,14.54
2018-04-23T01:53:30.609Z,14.56
2018-04-23T01:55:58.998Z,14.57
2018-04-23T01:58:27.381Z,14.56
2018-04-23T02:00:55.784Z,14.54
2018-04-23T02:03:24.157Z,14.53
2018-04-23T02:05:57.333Z,14.53
2018-04-23T02:08:25.707Z,14.48
2018-04-23T02:10:54.090Z,14.51
2018-04-23T02:13:23.267Z,14.53
2018-04-23T02:15:51.651Z,14.53
2018-04-23T02:18:20.026Z,14.59
2018-04-23T02:20:48.475Z,14.58
2018-04-23T02:23:16.958Z,14.62
2018-04-23T02:25:45.404Z,14.60
2018-04-23T02:28:13.966Z,14.55
2018-04-23T02:30:42.448Z,14.61
2018-04-23T02:33:10.882Z,14.61
2018-04-23T02:35:39.364Z,14.64
2018-04-23T02:38:07.731Z,14.63
2018-04-23T02:40:36.098Z,14.65
2018-04-23T02:43:04.477Z,14.70
2018-04-23T02:45:33.025Z,14.76
2018-04-23T02:48:01.408Z,14.76
2018-04-23T02:50:29.985Z,14.63
2018-04-23T02:52:58.355Z,14.63
2018-04-23T02:55:26.719Z,14.70
2018-04-23T02:57:55.245Z,14.66
2018-04-23T03:00:23.619Z,14.67
2018-04-23T03:02:51.984Z,14.66
2018-04-23T03:05:20.856Z,14.68
2018-04-23T03:07:49.418Z,14.63
2018-04-23T03:10:17.810Z,14.70
2018-04-23T03:12:47.751Z,14.70
2018-04-23T03:15:16.103Z,14.67
2018-04-23T03:17:44.492Z,14.72
2018-04-23T03:20:13.725Z,14.65
2018-04-23T03:22:42.104Z,14.72
2018-04-23T03:25:10.476Z,14.73
2018-04-23T03:27:38.860Z,14.67
2018-04-23T03:30:07.235Z,14.64
2018-04-23T03:32:35.583Z,14.60
2018-04-23T03:35:04.079Z,14.70
2018-04-23T03:37:32.486Z,14.67
2018-04-23T03:40:00.851Z,14.63
2018-04-23T03:42:29.600Z,14.62
2018-04-23T03:44:58.224Z,14.60
2018-04-23T03:47:27.657Z,14.59
2018-04-23T03:49:56.347Z,14.54
2018-04-23T03:52:24.707Z,14.53
2018-04-23T03:54:53.056Z,14.49
2018-04-23T03:57:22.190Z,14.44
2018-04-23T03:59:50.560Z,14.42
2018-04-23T04:02:18.994Z,14.46
2018-04-23T04:04:47.406Z,14.39
2018-04-23T04:07:15.773Z,14.30
2018-04-23T04:09:44.298Z,14.36
2018-04-23T04:15:31.469Z,14.40
2018-04-23T04:18:30.005Z,14.38
2018-04-23T04:20:59.224Z,14.32
2018-04-23T04:23:27.578Z,14.35
2018-04-23T04:25:56.272Z,14.31
2018-04-23T04:28:24.647Z,14.29
2018-04-23T04:30:53.045Z,14.32
2018-04-23T04:33:21.502Z,14.31
2018-04-23T04:35:49.883Z,14.33
2018-04-23T04:38:18.367Z,14.33
2018-04-23T04:40:46.843Z,14.34
2018-04-23T04:43:15.249Z,14.30
2018-04-23T04:45:43.698Z,14.29
2018-04-23T04:48:12.106Z,14.27
2018-04-23T04:50:40.503Z,14.26
2018-04-23T04:53:08.915Z,14.28
2018-04-23T04:55:37.331Z,14.31
2018-04-23T04:58:05.715Z,14.32
2018-04-23T05:00:34.077Z,14.30
2018-04-23T05:03:02.466Z,14.30
2018-04-23T05:05:30.849Z,14.28
2018-04-23T05:07:59.274Z,14.25
2018-04-23T05:10:27.793Z,14.27
2018-04-23T05:12:56.152Z,14.21
2018-04-23T05:15:24.528Z,14.16
2018-04-23T05:17:59.710Z,14.15
2018-04-23T05:20:28.285Z,14.13
2018-04-23T05:22:56.780Z,14.12
2018-04-23T05:25:25.252Z,14.11
2018-04-23T05:27:53.628Z,14.04
2018-04-23T05:30:22.211Z,14.04
2018-04-23T05:32:50.588Z,13.98
2018-04-23T05:35:19.177Z,13.93
2018-04-23T05:37:47.561Z,13.89
2018-04-23T05:40:15.974Z,13.87
2018-04-23T05:42:44.512Z,13.86
2018-04-23T05:45:12.958Z,13.89
2018-04-23T05:47:41.440Z,13.91
2018-04-23T05:50:10.151Z,13.89
2018-04-23T05:52:38.736Z,13.86
2018-04-23T05:55:07.080Z,13.85
2018-04-23T05:57:35.441Z,13.87
2018-04-23T06:00:03.837Z,13.98
2018-04-23T06:02:32.459Z,14.06
2018-04-23T06:05:00.833Z,14.09
2018-04-23T06:07:29.225Z,14.00
2018-04-23T06:09:57.644Z,13.96
2018-04-23T06:12:26.291Z,13.99
2018-04-23T06:14:54.892Z,14.01
2018-04-23T06:17:23.252Z,14.03
2018-04-23T06:19:51.621Z,14.03
2018-04-23T06:22:20.664Z,14.07
2018-04-23T06:24:49.094Z,14.05
2018-04-23T06:27:17.994Z,14.17
2018-04-23T06:29:46.978Z,14.20
2018-04-23T06:32:15.421Z,14.16
2018-04-23T06:34:43.829Z,14.17
2018-04-23T06:37:12.332Z,14.15
2018-04-23T06:39:40.744Z,14.20
2018-04-23T06:42:09.317Z,14.20
2018-04-23T06:44:38.175Z,14.16
2018-04-23T06:47:06.540Z,14.20
2018-04-23T06:49:34.919Z,14.39
2018-04-23T06:52:04.131Z,14.57
2018-04-23T06:54:32.494Z,14.67
2018-04-23T06:57:00.853Z,14.65
2018-04-23T06:59:30.588Z,14.66
2018-04-23T07:01:59.159Z,14.50
2018-04-23T07:04:27.500Z,14.38
2018-04-23T07:06:56.541Z,14.34
2018-04-23T07:09:25.026Z,14.29
2018-04-23T07:11:53.422Z,14.30
2018-04-23T07:14:22.031Z,14.38
2018-04-23T07:16:50.459Z,14.42
2018-04-23T07:19:18.991Z,14.46
2018-04-23T07:21:48.171Z,14.55
2018-04-23T07:24:16.624Z,14.59
2018-04-23T07:26:45.235Z,14.53
2018-04-23T07:29:14.243Z,14.42
2018-04-23T07:31:42.621Z,14.32
2018-04-23T07:34:11.064Z,14.24
2018-04-23T07:36:40.308Z,14.27
2018-04-23T07:39:08.794Z,14.33
2018-04-23T07:41:37.169Z,14.35
2018-04-23T07:44:05.653Z,14.30
2018-04-23T07:46:34.010Z,14.32
2018-04-23T07:49:02.401Z,14.29
2018-04-23T07:51:30.788Z,14.26
2018-04-23T07:53:59.215Z,14.26
2018-04-23T07:56:27.592Z,14.27
2018-04-23T07:58:55.986Z,14.24
2018-04-23T08:01:24.556Z,14.32
2018-04-23T08:03:52.939Z,14.45
2018-04-23T08:06:21.373Z,14.53
2018-04-23T08:08:49.847Z,14.71
2018-04-23T08:11:18.299Z,14.82
2018-04-23T08:13:47.581Z,14.98
2018-04-23T08:16:16.012Z,15.18
2018-04-23T08:18:44.438Z,15.36
2018-04-23T08:21:12.944Z,15.42
2018-04-23T08:23:41.496Z,15.43
2018-04-23T08:26:09.897Z,15.31
2018-04-23T08:28:38.498Z,15.13
2018-04-23T08:31:06.860Z,15.11
2018-04-23T08:33:35.220Z,15.04
2018-04-23T08:36:04.008Z,14.89
2018-04-23T08:38:32.441Z,15.08
2018-04-23T08:41:01.803Z,15.31
2018-04-23T08:43:30.318Z,15.52
2018-04-23T08:45:58.725Z,15.59
2018-04-23T08:48:27.106Z,15.84
2018-04-23T08:50:55.670Z,15.97
2018-04-23T08:53:23.893Z,15.98
2018-04-23T08:55:52.280Z,15.94
2018-04-23T08:58:20.902Z,16.14
2018-04-23T09:00:49.271Z,16.28
2018-04-23T09:03:17.624Z,16.35
2018-04-23T09:05:46.093Z,16.35
2018-04-23T09:08:14.501Z,16.30
2018-04-23T09:10:42.880Z,16.27
2018-04-23T09:13:11.329Z,16.33
2018-04-23T09:15:39.973Z,16.53
2018-04-23T09:18:08.476Z,16.59
2018-04-23T09:20:40.421Z,16.82
2018-04-23T09:23:08.869Z,17.23
2018-04-23T09:25:37.236Z,17.83
2018-04-23T09:28:06.564Z,18.62
2018-04-23T09:30:34.953Z,19.04
2018-04-23T09:33:03.440Z,18.52
2018-04-23T09:35:36.898Z,18.04
2018-04-23T09:38:05.280Z,17.39
2018-04-23T09:40:33.627Z,17.28
2018-04-23T09:43:02.090Z,17.34
2018-04-23T09:45:30.469Z,17.89
2018-04-23T09:47:58.856Z,18.05
2018-04-23T09:50:28.033Z,17.95
2018-04-23T09:52:56.384Z,18.22
2018-04-23T09:55:24.743Z,18.78
2018-04-23T09:57:53.224Z,19.33
2018-04-23T10:00:27.321Z,19.39
2018-04-23T10:02:58.195Z,19.20
2018-04-23T10:05:27.015Z,19.31
2018-04-23T10:07:55.364Z,18.92
2018-04-23T10:10:23.789Z,18.41
2018-04-23T10:12:52.135Z,18.05
2018-04-23T10:15:20.544Z,17.93
2018-04-23T10:17:49.070Z,17.79
2018-04-23T10:20:17.551Z,17.68
2018-04-23T10:22:45.933Z,18.22
2018-04-23T10:25:14.583Z,18.31
2018-04-23T10:27:43.140Z,17.98
2018-04-23T10:30:11.551Z,17.52
2018-04-23T10:32:40.672Z,17.13
2018-04-23T10:35:09.138Z,16.98
2018-04-23T10:37:37.874Z,16.41
2018-04-23T10:40:09.824Z,16.56
2018-04-23T10:42:38.196Z,16.70
2018-04-23T10:45:06.539Z,16.78
2018-04-23T10:47:35.111Z,17.08
2018-04-23T10:50:03.486Z,16.80
2018-04-23T10:52:31.839Z,16.78
2018-04-23T10:55:01.074Z,18.01
2018-04-23T10:57:29.439Z,19.14
2018-04-23T10:59:57.843Z,18.86
2018-04-23T11:02:26.972Z,18.08
2018-04-23T11:04:55.312Z,17.13
2018-04-23T11:07:23.684Z,16.70
2018-04-23T11:09:52.205Z,16.96
2018-04-23T11:12:20.583Z,18.15
2018-04-23T11:14:49.111Z,19.21
2018-04-23T11:17:17.514Z,20.45
2018-04-23T11:19:45.892Z,20.89
2018-04-23T11:22:14.292Z,21.27
2018-04-23T11:24:42.832Z,20.13
2018-04-23T11:27:11.160Z,18.99
2018-04-23T11:29:39.537Z,18.33
2018-04-23T11:32:09.759Z,17.48
2018-04-23T11:34:38.215Z,17.27
2018-04-23T11:37:06.579Z,17.87
2018-04-23T11:39:36.550Z,18.70
2018-04-23T11:42:04.869Z,19.36
2018-04-23T11:44:33.244Z,19.54
2018-04-23T11:47:01.637Z,19.13
2018-04-23T11:49:30.060Z,19.35
2018-04-23T11:51:58.415Z,19.94
2018-04-23T11:54:28.356Z,20.23
2018-04-23T11:56:56.739Z,20.01
2018-04-23T11:59:25.068Z,19.52
2018-04-23T12:01:53.502Z,19.12
2018-04-23T12:04:21.882Z,18.53
2018-04-23T12:06:50.301Z,18.68
2018-04-23T12:09:19.194Z,18.78
2018-04-23T12:11:47.665Z,19.53
2018-04-23T12:14:16.351Z,19.96
2018-04-23T12:16:45.551Z,20.53
2018-04-23T12:19:13.937Z,20.36
2018-04-23T12:21:42.551Z,20.39
2018-04-23T12:24:11.745Z,20.23
2018-04-23T12:26:40.202Z,20.21
2018-04-23T12:29:08.699Z,20.29
2018-04-23T12:31:37.875Z,20.68
2018-04-23T12:34:06.250Z,20.37
2018-04-23T12:36:34.645Z,19.87
2018-04-23T12:39:03.332Z,19.78
2018-04-23T12:41:31.702Z,19.68
2018-04-23T12:44:00.071Z,19.10
2018-04-23T12:46:28.886Z,18.72
2018-04-23T12:48:57.264Z,18.13
2018-04-23T12:51:25.643Z,17.68
2018-04-23T12:53:54.112Z,17.34
2018-04-23T12:56:22.517Z,17.25
2018-04-23T12:58:50.878Z,17.56
2018-04-23T13:01:19.362Z,17.99
2018-04-23T13:03:47.738Z,18.73
2018-04-23T13:06:16.063Z,19.12
2018-04-23T13:08:45.954Z,18.39
2018-04-23T13:11:14.335Z,18.03
2018-04-23T13:13:43.097Z,18.33
2018-04-23T13:16:12.712Z,19.00
2018-04-23T13:18:41.178Z,19.64
2018-04-23T13:21:09.904Z,19.26
2018-04-23T13:23:38.750Z,19.28
2018-04-23T13:26:07.868Z,19.20
2018-04-23T13:28:36.224Z,19.34
2018-04-23T13:31:05.147Z,18.69
2018-04-23T13:33:33.505Z,18.49
2018-04-23T13:36:02.077Z,18.66
2018-04-23T13:38:31.032Z,18.63
2018-04-23T13:41:00.331Z,18.24
2018-04-23T13:43:28.665Z,18.04
2018-04-23T13:45:57.124Z,17.78
2018-04-23T13:48:25.485Z,17.22
2018-04-23T13:50:54.193Z,17.28
2018-04-23T13:53:22.581Z,17.31
2018-04-23T13:55:50.968Z,17.82
2018-04-23T13:58:19.315Z,17.74
2018-04-23T14:00:47.767Z,18.51
2018-04-23T14:03:16.163Z,18.89
2018-04-23T14:05:44.554Z,18.67
2018-04-23T14:08:13.259Z,18.68
2018-04-23T14:10:43.804Z,18.01
2018-04-23T14:13:12.198Z,18.33
2018-04-23T14:15:40.669Z,18.88
2018-04-23T14:18:09.059Z,18.64
2018-04-23T14:20:37.449Z,18.05
2018-04-23T14:23:07.056Z,18.23
2018-04-23T14:25:35.436Z,18.14
2018-04-23T14:28:03.800Z,18.36
2018-04-23T14:30:32.765Z,18.75
2018-04-23T14:33:01.181Z,18.06
2018-04-23T14:35:29.535Z,17.51
2018-04-23T14:37:58.004Z,18.08
2018-04-23T14:40:26.422Z,18.26
2018-04-23T14:42:54.749Z,18.55
2018-04-23T14:45:23.162Z,18.18
2018-04-23T14:47:51.751Z,18.20
2018-04-23T14:50:20.074Z,18.31
2018-04-23T14:52:48.466Z,18.20
2018-04-23T14:55:16.841Z,18.66
2018-04-23T14:57:45.263Z,17.90
2018-04-23T15:00:15.114Z,18.28
2018-04-23T15:02:43.542Z,18.86
2018-04-23T15:05:11.916Z,19.20
2018-04-23T15:07:41.052Z,19.58
2018-04-23T15:10:09.494Z,19.44
2018-04-23T15:12:38.161Z,19.16
2018-04-23T15:15:06.782Z,18.86
2018-04-23T15:17:35.272Z,19.04
2018-04-23T15:20:03.602Z,18.93
2018-04-23T15:22:32.480Z,18.50
2018-04-23T15:25:00.856Z,17.79
2018-04-23T15:27:30.043Z,17.33
2018-04-23T15:29:58.421Z,17.04
2018-04-23T15:32:26.965Z,16.82
2018-04-23T15:34:55.484Z,16.90
2018-04-23T15:37:24.035Z,16.91
2018-04-23T15:39:52.361Z,16.80
2018-04-23T15:42:20.722Z,16.55
2018-04-23T15:44:49.119Z,16.39
2018-04-23T15:47:17.466Z,16.31
2018-04-23T15:49:45.833Z,16.24
2018-04-23T15:52:15.021Z,16.15
2018-04-23T15:54:43.426Z,16.06
2018-04-23T15:57:11.787Z,16.07
2018-04-23T15:59:40.218Z,16.05
2018-04-23T16:02:08.707Z,15.86
2018-04-23T16:04:37.190Z,15.76
2018-04-23T16:07:07.544Z,15.60
2018-04-23T16:09:36.267Z,15.53
2018-04-23T16:12:04.692Z,15.55
2018-04-23T16:14:33.300Z,15.55
2018-04-23T16:17:01.703Z,15.32
2018-04-23T16:19:30.178Z,15.36
2018-04-23T16:21:58.959Z,15.30
2018-04-23T16:24:27.721Z,15.28
2018-04-23T16:26:56.318Z,15.18
2018-04-23T16:29:25.008Z,14.98
2018-04-23T16:31:53.390Z,14.81
2018-04-23T16:34:22.577Z,14.67
2018-04-23T16:36:51.055Z,14.66
2018-04-23T16:39:19.484Z,14.55
2018-04-23T16:41:47.868Z,14.40
2018-04-23T16:44:16.834Z,14.30
2018-04-23T16:46:45.208Z,14.35
2018-04-23T16:49:13.628Z,14.28
2018-04-23T16:51:42.507Z,14.19
2018-04-23T16:54:10.896Z,14.14
2018-04-23T16:56:42.399Z,14.06
2018-04-23T16:59:11.322Z,13.98
2018-04-23T17:01:39.712Z,13.89
2018-04-23T17:04:08.164Z,13.94
2018-04-23T17:06:36.672Z,13.91
2018-04-23T17:09:05.151Z,13.87
2018-04-23T17:14:17.745Z,13.85
2018-04-23T17:16:46.232Z,13.85
2018-04-23T17:19:14.675Z,13.77
2018-04-23T17:21:43.024Z,13.69
2018-04-23T17:24:11.513Z,13.60
2018-04-23T17:26:40.141Z,13.54
2018-04-23T17:29:08.804Z,13.46
2018-04-23T17:31:37.283Z,13.40
2018-04-23T17:34:05.637Z,13.36
2018-04-23T17:36:34.020Z,13.25
2018-04-23T17:39:02.420Z,13.20
2018-04-23T17:41:30.872Z,13.09
2018-04-23T17:43:59.236Z,13.07
2018-04-23T17:46:28.112Z,13.04
2018-04-23T17:48:56.512Z,12.97
2018-04-23T17:51:24.884Z,12.98
2018-04-23T17:53:54.069Z,13.02
2018-04-23T17:56:22.438Z,12.99
2018-04-23T17:58:50.816Z,12.83
2018-04-23T18:01:19.201Z,12.67
2018-04-23T18:03:47.615Z,12.60
2018-04-23T18:06:15.999Z,12.47
2018-04-23T18:08:44.598Z,12.48
2018-04-23T18:11:13.047Z,12.34
2018-04-23T18:13:41.503Z,12.24
2018-04-23T18:16:11.015Z,12.22
2018-04-23T18:18:39.512Z,12.12
2018-04-23T18:21:08.046Z,12.09
2018-04-23T18:23:36.875Z,12.04
2018-04-23T18:26:05.671Z,12.01
2018-04-23T18:28:34.060Z,11.96
2018-04-23T18:31:03.258Z,11.95
2018-04-23T18:33:32.058Z,11.93
2018-04-23T18:36:00.543Z,11.91
2018-04-23T18:38:29.596Z,11.93
2018-04-23T18:40:57.956Z,11.93
2018-04-23T18:43:26.341Z,11.89
2018-04-23T18:45:54.973Z,11.83
2018-04-23T18:48:23.402Z,11.81
2018-04-23T18:50:51.823Z,11.79
2018-04-23T18:53:20.751Z,11.76
2018-04-23T18:55:49.159Z,11.76
2018-04-23T18:58:17.710Z,11.67
2018-04-23T19:00:46.194Z,11.56
2018-04-23T19:03:14.614Z,11.48
2018-04-23T19:05:43.218Z,11.45
2018-04-23T19:08:11.808Z,11.45
2018-04-23T19:10:40.334Z,11.38
2018-04-23T19:13:08.909Z,11.31
2018-04-23T19:15:38.902Z,11.23
2018-04-23T19:18:07.475Z,11.19
2018-04-23T19:20:36.402Z,11.14
2018-04-23T19:23:05.290Z,11.10
2018-04-23T19:25:33.769Z,11.06
2018-04-23T19:28:02.173Z,11.04
2018-04-23T19:30:30.790Z,11.07
2018-04-23T19:32:59.165Z,11.06
2018-04-23T19:35:27.578Z,11.01
2018-04-23T19:37:56.796Z,11.02
2018-04-23T19:40:25.189Z,10.99
2018-04-23T19:42:53.688Z,10.93
2018-04-23T19:45:22.286Z,10.90
2018-04-23T19:47:50.803Z,10.83
2018-04-23T19:50:19.361Z,10.82
2018-04-23T19:52:48.476Z,10.79
2018-04-23T19:55:17.501Z,10.75
2018-04-23T19:57:46.066Z,10.69
2018-04-23T20:00:14.723Z,10.68
2018-04-23T20:02:43.433Z,10.63
2018-04-23T20:05:11.869Z,10.61
2018-04-23T20:07:41.066Z,10.59
2018-04-23T20:10:09.528Z,10.59
2018-04-23T20:12:38.455Z,10.60
2018-04-23T20:15:07.073Z,10.57
2018-04-23T20:17:35.775Z,10.58
2018-04-23T20:20:04.212Z,10.57
2018-04-23T20:22:32.710Z,10.53
2018-04-23T20:25:01.096Z,10.45
2018-04-23T20:27:29.494Z,10.43
2018-04-23T20:29:58.810Z,10.41
2018-04-23T20:32:27.224Z,10.32
2018-04-23T20:34:55.604Z,10.29
2018-04-23T20:37:24.099Z,10.32
2018-04-23T20:39:52.467Z,10.34
2018-04-23T20:42:20.933Z,10.30
2018-04-23T20:44:49.380Z,10.27
2018-04-23T20:47:17.789Z,10.26
2018-04-23T20:49:46.211Z,10.21
2018-04-23T20:52:14.800Z,10.17
2018-04-23T20:54:43.209Z,10.13
2018-04-23T20:57:11.666Z,10.15
2018-04-23T20:59:41.171Z,10.16
2018-04-23T21:02:09.782Z,10.17
2018-04-23T21:04:38.381Z,10.20
2018-04-23T21:07:07.112Z,10.21
2018-04-23T21:09:35.658Z,10.23
2018-04-23T21:12:04.134Z,10.20
2018-04-23T21:14:33.179Z,10.19
2018-04-23T21:17:01.592Z,10.18
2018-04-23T21:19:30.319Z,10.16
2018-04-23T21:21:58.927Z,10.16
2018-04-23T21:24:27.303Z,10.15
2018-04-23T21:26:55.694Z,10.15
2018-04-23T21:29:24.081Z,10.12
2018-04-23T21:31:52.459Z,10.09
2018-04-23T21:34:20.835Z,10.09
2018-04-23T21:36:50.417Z,10.09
2018-04-23T21:39:18.833Z,10.12
2018-04-23T21:41:47.294Z,10.06
2018-04-23T21:44:15.836Z,10.07
2018-04-23T21:46:44.448Z,10.00
2018-04-23T21:49:12.927Z,10.10
2018-04-23T21:51:41.661Z,10.09
2018-04-23T21:54:10.032Z,10.11
2018-04-23T21:56:38.590Z,9.94
2018-04-23T21:59:08.690Z,9.87
2018-04-23T22:01:37.618Z,9.97
2018-04-23T22:04:06.118Z,9.97
2018-04-23T22:06:34.551Z,10.00
2018-04-23T22:09:02.909Z,10.04
2018-04-23T22:11:31.329Z,10.03
2018-04-23T22:13:59.774Z,10.08
2018-04-23T22:16:28.168Z,10.06
2018-04-23T22:18:56.569Z,9.99
2018-04-23T22:21:25.017Z,9.96
2018-04-23T22:23:53.348Z,9.93
2018-04-23T22:26:21.751Z,9.92
2018-04-23T22:28:50.148Z,9.88
2018-04-23T22:31:18.529Z,9.81
2018-04-23T22:33:46.886Z,9.83
2018-04-23T22:36:15.391Z,9.79
2018-04-23T22:38:43.770Z,9.81
2018-04-23T22:41:13.561Z,9.85
2018-04-23T22:43:42.243Z,9.82
2018-04-23T22:46:10.587Z,9.91
2018-04-23T22:48:38.982Z,9.97
2018-04-23T22:51:07.405Z,9.96
2018-04-23T22:53:35.843Z,10.05
2018-04-23T22:56:04.288Z,10.10
2018-04-23T22:58:32.752Z,10.16
2018-04-23T23:01:01.146Z,10.11
2018-04-23T23:03:29.526Z,10.04
2018-04-23T23:05:58.880Z,10.07
2018-04-23T23:08:27.446Z,10.13
2018-04-23T23:10:55.971Z,10.15
2018-04-23T23:13:24.400Z,10.13
2018-04-23T23:15:52.938Z,10.04
2018-04-23T23:18:21.456Z,9.98
2018-04-23T23:20:50.969Z,10.16
2018-04-23T23:23:20.544Z,10.28
2018-04-23T23:25:49.116Z,10.27
2018-04-23T23:28:18.373Z,10.34
2018-04-23T23:30:46.944Z,10.27
2018-04-23T23:33:15.382Z,10.23
2018-04-23T23:35:43.801Z,10.19
2018-04-23T23:38:12.211Z,10.12
